createdAt,value
2022-08-27T00:02:18.106Z,3.50
2022-08-27T00:04:47.785Z,3.92
2022-08-27T00:07:16.843Z,3.53
2022-08-27T00:09:44.742Z,3.83
2022-08-27T00:12:12.829Z,3.33
2022-08-27T00:14:40.626Z,3.50
2022-08-27T00:17:08.542Z,3.70
2022-08-27T00:19:37.406Z,3.85
2022-08-27T00:22:07.056Z,4.07
2022-08-27T00:24:35.742Z,3.20
2022-08-27T00:27:06.590Z,3.97
2022-08-27T00:29:34.314Z,3.93
2022-08-27T00:32:03.619Z,3.53
2022-08-27T00:34:34.212Z,3.47
2022-08-27T00:37:03.903Z,3.42
2022-08-27T00:39:31.873Z,3.28
2022-08-27T00:42:01.456Z,3.40
2022-08-27T00:44:32.459Z,3.63
2022-08-27T00:47:06.465Z,3.40
2022-08-27T00:49:52.175Z,3.70
2022-08-27T00:52:38.805Z,3.25
2022-08-27T00:55:18.653Z,3.60
2022-08-27T00:57:54.521Z,3.42
2022-08-27T01:00:23.126Z,3.63
2022-08-27T01:02:50.778Z,3.70
2022-08-27T01:05:23.652Z,3.40
2022-08-27T01:07:55.069Z,3.42
2022-08-27T01:10:25.851Z,3.65
2022-08-27T01:12:55.305Z,3.50
2022-08-27T01:15:27.343Z,3.97
2022-08-27T01:17:59.542Z,3.03
2022-08-27T01:20:43.498Z,3.58
2022-08-27T01:23:38.205Z,3.30
2022-08-27T01:26:08.797Z,3.25
2022-08-27T01:28:37.919Z,3.30
2022-08-27T01:31:11.569Z,2.75
2022-08-27T01:33:40.310Z,3.42
2022-08-27T01:36:08.535Z,3.50
2022-08-27T01:38:35.909Z,3.35
2022-08-27T01:41:05.749Z,3.30
2022-08-27T01:43:34.276Z,3.60
2022-08-27T01:46:01.987Z,3.28
2022-08-27T01:48:30.392Z,3.20
2022-08-27T01:50:57.843Z,3.67
2022-08-27T01:53:27.243Z,3.30
2022-08-27T01:55:56.703Z,3.20
2022-08-27T01:58:29.232Z,3.63
2022-08-27T02:01:06.068Z,3.13
2022-08-27T02:03:37.282Z,3.40
2022-08-27T02:06:09.655Z,3.75
2022-08-27T02:08:37.756Z,3.00
2022-08-27T02:11:08.660Z,3.13
2022-08-27T02:13:36.523Z,3.05
2022-08-27T02:16:04.467Z,3.40
2022-08-27T02:18:31.900Z,3.05
2022-08-27T02:21:02.514Z,2.92
2022-08-27T02:23:30.119Z,3.15
2022-08-27T02:25:57.781Z,3.63
2022-08-27T02:28:25.409Z,3.60
2022-08-27T02:30:52.698Z,3.53
2022-08-27T02:33:19.852Z,3.08
2022-08-27T02:35:47.650Z,2.72
2022-08-27T02:38:15.053Z,3.25
2022-08-27T02:40:42.531Z,3.58
2022-08-27T02:43:15.600Z,3.20
2022-08-27T02:45:44.477Z,3.25
2022-08-27T02:48:12.442Z,3.60
2022-08-27T02:50:40.068Z,3.65
2022-08-27T02:53:08.198Z,3.75
2022-08-27T02:55:37.140Z,3.70
2022-08-27T02:58:05.474Z,3.43
2022-08-27T03:00:32.816Z,3.40
2022-08-27T03:03:02.004Z,3.53
2022-08-27T03:08:00.134Z,2.90
2022-08-27T03:10:27.464Z,3.20
2022-08-27T03:12:55.006Z,3.47
2022-08-27T03:15:23.005Z,3.65
2022-08-27T03:18:09.769Z,3.47
2022-08-27T03:20:44.602Z,4.00
2022-08-27T03:23:12.787Z,3.13
2022-08-27T03:25:44.238Z,3.63
2022-08-27T03:28:22.543Z,3.33
2022-08-27T03:30:54.416Z,3.53
2022-08-27T03:33:22.762Z,3.33
2022-08-27T03:35:52.245Z,2.92
2022-08-27T03:38:22.829Z,2.97
2022-08-27T03:40:51.956Z,3.42
2022-08-27T03:43:22.460Z,3.05
2022-08-27T03:46:01.721Z,3.63
2022-08-27T03:48:34.989Z,3.60
2022-08-27T03:51:10.980Z,3.20
2022-08-27T03:53:40.924Z,3.13
2022-08-27T03:56:08.866Z,3.60
2022-08-27T03:58:38.977Z,3.58
2022-08-27T04:01:08.308Z,3.70
2022-08-27T04:03:38.025Z,3.13
2022-08-27T04:06:06.152Z,3.55
2022-08-27T04:08:34.205Z,4.05
2022-08-27T04:11:05.844Z,4.00
2022-08-27T04:13:34.586Z,4.07
2022-08-27T04:16:02.428Z,4.07
2022-08-27T04:18:29.769Z,3.75
2022-08-27T04:20:58.339Z,3.67
2022-08-27T04:23:25.710Z,4.38
2022-08-27T04:25:53.105Z,3.85
2022-08-27T04:28:21.729Z,4.55
2022-08-27T04:30:49.903Z,4.03
2022-08-27T04:33:17.924Z,4.18
2022-08-27T04:35:45.495Z,4.20
2022-08-27T04:38:13.030Z,4.03
2022-08-27T04:40:59.393Z,4.43
2022-08-27T04:43:28.942Z,3.88
2022-08-27T04:48:25.889Z,3.67
2022-08-27T04:53:20.915Z,3.35
2022-08-27T04:55:53.757Z,3.83
2022-08-27T04:58:23.399Z,4.03
2022-08-27T05:00:55.143Z,3.50
2022-08-27T05:03:24.455Z,3.40
2022-08-27T05:05:53.486Z,3.95
2022-08-27T05:08:21.080Z,4.03
2022-08-27T05:10:52.129Z,3.45
2022-08-27T05:13:22.716Z,4.03
2022-08-27T05:15:57.317Z,4.30
2022-08-27T05:18:28.307Z,3.80
2022-08-27T05:20:57.631Z,3.88
2022-08-27T05:25:54.137Z,4.07
2022-08-27T05:28:27.846Z,4.03
2022-08-27T05:31:05.414Z,4.13
2022-08-27T05:33:33.877Z,4.45
2022-08-27T05:36:02.058Z,4.50
2022-08-27T05:38:31.242Z,4.50
2022-08-27T05:41:12.421Z,4.47
2022-08-27T05:43:42.470Z,4.05
2022-08-27T05:46:17.252Z,4.60
2022-08-27T05:48:46.544Z,4.93
2022-08-27T05:51:25.587Z,4.60
2022-08-27T05:54:08.598Z,4.70
2022-08-27T05:56:38.773Z,5.00
2022-08-27T05:59:26.304Z,5.05
2022-08-27T06:01:56.879Z,4.63
2022-08-27T06:04:26.241Z,5.20
2022-08-27T06:06:55.086Z,5.47
2022-08-27T06:09:27.229Z,5.70
2022-08-27T06:11:57.032Z,6.10
2022-08-27T06:14:24.707Z,5.35
2022-08-27T06:16:52.543Z,5.65
2022-08-27T06:19:20.376Z,5.85
2022-08-27T06:22:00.864Z,6.15
2022-08-27T06:24:36.478Z,5.70
2022-08-27T06:27:03.837Z,6.30
2022-08-27T06:29:31.605Z,6.78
2022-08-27T06:31:59.765Z,7.67
2022-08-27T06:34:27.349Z,8.88
2022-08-27T06:36:55.554Z,7.88
2022-08-27T06:39:23.051Z,7.65
2022-08-27T06:42:03.422Z,7.53
2022-08-27T06:44:34.455Z,8.25
2022-08-27T06:47:04.013Z,9.85
2022-08-27T06:54:46.128Z,10.77
2022-08-27T06:57:13.473Z,12.18
2022-08-27T06:59:41.296Z,11.93
2022-08-27T07:02:11.431Z,11.27
2022-08-27T07:04:41.478Z,12.55
2022-08-27T07:07:34.383Z,12.75
2022-08-27T07:10:07.777Z,12.63
2022-08-27T07:12:35.074Z,11.10
2022-08-27T07:15:04.438Z,13.05
2022-08-27T07:17:31.983Z,11.27
2022-08-27T07:20:02.176Z,12.57
2022-08-27T07:22:29.797Z,13.80
2022-08-27T07:24:57.299Z,13.15
2022-08-27T07:27:24.642Z,12.75
2022-08-27T07:29:56.222Z,13.40
2022-08-27T07:32:23.473Z,12.98
2022-08-27T07:34:58.096Z,11.88
2022-08-27T07:37:26.921Z,10.77
2022-08-27T07:40:07.293Z,12.32
2022-08-27T07:42:53.332Z,12.27
2022-08-27T07:45:24.401Z,10.82
2022-08-27T07:47:57.836Z,12.75
2022-08-27T07:50:27.668Z,11.73
2022-08-27T07:52:58.356Z,11.25
2022-08-27T07:55:26.498Z,11.60
2022-08-27T07:57:54.759Z,10.55
2022-08-27T08:00:22.051Z,11.02
2022-08-27T08:02:49.941Z,10.75
2022-08-27T08:05:17.547Z,10.75
2022-08-27T08:07:45.303Z,10.82
2022-08-27T08:10:13.452Z,11.10
2022-08-27T08:12:41.333Z,10.88
2022-08-27T08:15:11.973Z,10.73
2022-08-27T08:17:39.479Z,10.82
2022-08-27T08:20:31.281Z,10.75
2022-08-27T08:23:00.125Z,10.73
2022-08-27T08:25:27.295Z,10.70
2022-08-27T08:27:57.846Z,10.02
2022-08-27T08:30:28.435Z,10.48
2022-08-27T08:33:01.917Z,10.23
2022-08-27T08:35:34.911Z,10.95
2022-08-27T08:38:08.935Z,11.38
2022-08-27T08:40:44.463Z,11.85
2022-08-27T08:43:41.945Z,11.52
2022-08-27T08:46:24.996Z,9.85
2022-08-27T08:48:59.500Z,10.98
2022-08-27T08:51:42.301Z,12.02
2022-08-27T08:54:23.271Z,11.50
2022-08-27T08:57:10.802Z,10.50
2022-08-27T08:59:48.036Z,10.43
2022-08-27T09:02:16.888Z,12.82
2022-08-27T09:04:44.918Z,12.52
2022-08-27T09:07:35.513Z,12.07
2022-08-27T09:10:18.729Z,10.77
2022-08-27T09:12:46.314Z,10.25
2022-08-27T09:15:21.114Z,10.52
2022-08-27T09:17:49.037Z,10.65
2022-08-27T09:20:21.484Z,10.35
2022-08-27T09:23:33.872Z,9.50
2022-08-27T09:26:01.374Z,10.43
2022-08-27T09:28:49.162Z,11.30
2022-08-27T09:31:20.890Z,10.38
2022-08-27T09:33:55.774Z,11.65
2022-08-27T09:36:25.165Z,11.27
2022-08-27T09:38:58.201Z,10.73
2022-08-27T09:41:42.971Z,11.25
2022-08-27T09:44:14.811Z,11.77
2022-08-27T09:47:00.282Z,11.90
2022-08-27T09:49:28.374Z,10.77
2022-08-27T09:51:57.448Z,10.43
2022-08-27T09:54:32.848Z,11.07
2022-08-27T09:57:01.169Z,11.05
2022-08-27T09:59:37.916Z,12.07
2022-08-27T10:02:18.881Z,11.07
2022-08-27T10:05:01.116Z,11.35
2022-08-27T10:07:56.878Z,11.18
2022-08-27T10:10:43.698Z,11.02
2022-08-27T10:13:33.374Z,11.60
2022-08-27T10:16:47.251Z,11.32
2022-08-27T10:20:30.266Z,11.30
2022-08-27T10:23:42.508Z,11.18
2022-08-27T10:26:18.684Z,10.63
2022-08-27T10:29:36.069Z,10.50
2022-08-27T10:32:44.052Z,9.65
2022-08-27T10:35:27.539Z,10.40
2022-08-27T10:38:33.084Z,8.85
2022-08-27T10:41:17.125Z,8.85
2022-08-27T10:44:10.032Z,8.60
2022-08-27T10:46:50.236Z,8.48
2022-08-27T10:49:31.180Z,8.50
2022-08-27T10:52:18.892Z,8.40
2022-08-27T10:55:16.430Z,7.10
2022-08-27T10:58:34.866Z,8.38
2022-08-27T11:01:33.279Z,7.10
2022-08-27T11:04:18.709Z,7.32
2022-08-27T11:07:03.920Z,6.93
2022-08-27T11:10:00.204Z,7.63
2022-08-27T11:12:39.164Z,8.10
2022-08-27T11:15:28.155Z,7.85
2022-08-27T11:18:42.367Z,7.57
2022-08-27T11:21:27.802Z,7.55
2022-08-27T11:24:22.031Z,7.93
2022-08-27T11:26:56.413Z,8.43
2022-08-27T11:29:39.037Z,7.90
2022-08-27T11:32:32.695Z,8.80
2022-08-27T11:35:07.449Z,8.63
2022-08-27T11:37:43.368Z,9.80
2022-08-27T11:40:38.370Z,6.75
2022-08-27T11:43:09.528Z,5.63
2022-08-27T11:45:51.336Z,4.57
2022-08-27T11:48:27.543Z,4.50
2022-08-27T11:51:06.408Z,3.95
2022-08-27T11:53:52.564Z,3.63
2022-08-27T11:56:39.791Z,4.05
2022-08-27T11:59:21.333Z,3.83
2022-08-27T12:01:52.439Z,3.42
2022-08-27T12:04:30.673Z,3.67
2022-08-27T12:07:17.379Z,3.30
2022-08-27T12:09:53.776Z,2.85
2022-08-27T12:12:49.708Z,3.20
2022-08-27T12:15:33.705Z,3.28
2022-08-27T12:18:37.094Z,2.72
2022-08-27T12:21:30.542Z,2.60
2022-08-27T12:24:16.624Z,2.53
2022-08-27T12:27:00.549Z,2.47
2022-08-27T12:29:43.820Z,2.35
2022-08-27T12:32:27.258Z,3.13
2022-08-27T12:35:19.631Z,2.85
2022-08-27T12:38:19.404Z,2.22
2022-08-27T12:40:54.483Z,2.60
2022-08-27T12:43:29.760Z,2.33
2022-08-27T12:46:02.478Z,2.90
2022-08-27T12:48:39.538Z,2.70
2022-08-27T12:51:34.735Z,2.42
2022-08-27T12:54:45.946Z,2.83
2022-08-27T12:57:45.958Z,2.75
2022-08-27T13:00:18.904Z,2.67
2022-08-27T13:02:46.442Z,2.97
2022-08-27T13:05:19.199Z,2.70
2022-08-27T13:07:49.066Z,2.85
2022-08-27T13:13:17.883Z,2.80
2022-08-27T13:15:58.581Z,2.47
2022-08-27T13:18:29.986Z,2.25
2022-08-27T13:21:19.720Z,2.28
2022-08-27T13:24:02.744Z,2.50
2022-08-27T13:26:34.568Z,2.90
2022-08-27T13:29:04.585Z,2.75
2022-08-27T13:31:33.116Z,2.80
2022-08-27T13:34:02.556Z,3.28
2022-08-27T13:36:47.416Z,2.88
2022-08-27T13:39:14.768Z,3.08
2022-08-27T13:41:42.577Z,2.90
2022-08-27T13:47:16.376Z,2.53
2022-08-27T13:49:46.360Z,2.70
2022-08-27T13:55:18.185Z,3.00
2022-08-27T13:57:50.040Z,2.90
2022-08-27T14:00:32.317Z,2.58
2022-08-27T14:03:02.551Z,2.92
2022-08-27T14:05:34.035Z,3.17
2022-08-27T14:08:18.054Z,3.70
2022-08-27T14:11:01.149Z,3.20
2022-08-27T14:13:30.751Z,3.20
2022-08-27T14:16:01.240Z,3.83
2022-08-27T14:18:57.374Z,2.97
2022-08-27T14:21:22.853Z,3.17
2022-08-27T14:23:50.518Z,3.28
2022-08-27T14:26:18.045Z,3.58
2022-08-27T14:28:46.675Z,3.10
2022-08-27T14:31:14.772Z,3.17
2022-08-27T14:33:42.509Z,3.22
2022-08-27T14:36:10.963Z,2.90
2022-08-27T14:38:43.183Z,3.22
2022-08-27T14:41:11.267Z,3.30
2022-08-27T14:43:38.686Z,3.17
2022-08-27T14:46:08.446Z,3.42
2022-08-27T14:48:37.027Z,3.25
2022-08-27T14:51:13.905Z,2.97
2022-08-27T14:53:41.245Z,3.53
2022-08-27T14:56:08.422Z,3.33
2022-08-27T14:58:35.754Z,3.45
2022-08-27T15:01:04.269Z,3.42
2022-08-27T15:03:40.533Z,4.00
2022-08-27T15:06:07.729Z,3.55
2022-08-27T15:08:36.293Z,3.43
2022-08-27T15:11:04.079Z,3.63
2022-08-27T15:13:32.237Z,3.40
2022-08-27T15:15:59.395Z,3.45
2022-08-27T15:18:27.906Z,3.40
2022-08-27T15:20:55.140Z,4.07
2022-08-27T15:23:22.503Z,3.45
2022-08-27T15:25:49.831Z,3.58
2022-08-27T15:28:17.497Z,3.28
2022-08-27T15:30:44.984Z,3.25
2022-08-27T15:33:12.309Z,3.13
2022-08-27T15:35:39.495Z,3.30
2022-08-27T15:38:06.945Z,3.30
2022-08-27T15:40:36.750Z,3.17
2022-08-27T15:43:07.461Z,3.17
2022-08-27T15:45:35.736Z,3.42
2022-08-27T15:48:03.244Z,3.37
2022-08-27T15:50:31.607Z,3.40
2022-08-27T15:53:04.187Z,3.47
2022-08-27T15:55:36.622Z,3.97
2022-08-27T15:58:04.855Z,3.03
2022-08-27T16:00:33.855Z,3.05
2022-08-27T16:03:04.223Z,3.65
2022-08-27T16:05:36.178Z,2.97
2022-08-27T16:08:04.767Z,3.25
2022-08-27T16:10:32.275Z,3.80
2022-08-27T16:12:59.984Z,3.60
2022-08-27T16:15:28.406Z,3.70
2022-08-27T16:18:00.607Z,3.78
2022-08-27T16:20:28.718Z,3.63
2022-08-27T16:22:56.144Z,3.88
2022-08-27T16:25:23.695Z,3.70
2022-08-27T16:27:52.441Z,4.10
2022-08-27T16:30:22.460Z,4.28
2022-08-27T16:32:52.802Z,4.82
2022-08-27T16:35:21.420Z,4.20
2022-08-27T16:37:48.691Z,4.70
2022-08-27T16:40:16.325Z,4.57
2022-08-27T16:42:48.986Z,4.10
2022-08-27T16:45:18.996Z,5.45
2022-08-27T16:48:06.199Z,5.70
2022-08-27T16:50:34.857Z,5.65
2022-08-27T16:53:15.208Z,5.30
2022-08-27T16:56:02.087Z,4.60
2022-08-27T16:58:31.644Z,5.05
2022-08-27T17:01:05.395Z,5.47
2022-08-27T17:04:07.689Z,4.93
2022-08-27T17:06:32.708Z,5.10
2022-08-27T17:08:59.854Z,4.93
2022-08-27T17:11:29.340Z,4.55
2022-08-27T17:14:00.082Z,4.75
2022-08-27T17:16:33.655Z,4.32
2022-08-27T17:19:05.002Z,4.63
2022-08-27T17:21:34.860Z,4.88
2022-08-27T17:24:02.778Z,4.38
2022-08-27T17:26:35.020Z,4.85
2022-08-27T17:29:02.504Z,4.75
2022-08-27T17:31:38.624Z,5.32
2022-08-27T17:34:14.802Z,5.10
2022-08-27T17:36:44.298Z,4.47
2022-08-27T17:39:13.608Z,5.82
2022-08-27T17:41:47.994Z,4.90
2022-08-27T17:44:35.767Z,4.80
2022-08-27T17:47:08.464Z,5.10
2022-08-27T17:49:36.987Z,5.38
2022-08-27T17:52:12.489Z,5.13
2022-08-27T17:54:48.890Z,5.53
2022-08-27T17:57:25.835Z,5.53
2022-08-27T17:59:54.510Z,5.70
2022-08-27T18:02:33.302Z,5.70
2022-08-27T18:05:01.022Z,5.60
2022-08-27T18:07:28.861Z,5.53
2022-08-27T18:09:56.241Z,5.70
2022-08-27T18:12:26.497Z,6.00
2022-08-27T18:15:33.604Z,6.25
2022-08-27T18:18:05.511Z,5.90
2022-08-27T18:20:34.766Z,5.07
2022-08-27T18:23:04.348Z,5.60
2022-08-27T18:25:38.430Z,6.10
2022-08-27T18:28:09.277Z,6.00
2022-08-27T18:30:39.664Z,5.75
2022-08-27T18:33:09.397Z,6.25
2022-08-27T18:35:38.140Z,5.68
2022-08-27T18:38:06.883Z,6.13
2022-08-27T18:40:45.580Z,5.78
2022-08-27T18:43:16.036Z,5.93
2022-08-27T18:46:04.724Z,5.70
2022-08-27T18:48:33.294Z,6.18
2022-08-27T18:51:04.099Z,6.32
2022-08-27T18:53:35.046Z,6.65
2022-08-27T18:56:04.643Z,6.65
2022-08-27T18:58:32.073Z,6.63
2022-08-27T19:01:24.985Z,7.25
2022-08-27T19:03:55.168Z,6.75
2022-08-27T19:06:24.143Z,6.78
2022-08-27T19:08:53.018Z,6.07
2022-08-27T19:11:20.937Z,6.38
2022-08-27T19:13:50.765Z,6.27
2022-08-27T19:16:45.325Z,5.82
2022-08-27T19:19:18.953Z,6.00
2022-08-27T19:21:51.193Z,6.60
2022-08-27T19:24:21.667Z,7.68
2022-08-27T19:26:57.433Z,6.82
2022-08-27T19:29:26.000Z,6.38
2022-08-27T19:31:56.881Z,6.30
2022-08-27T19:34:27.254Z,7.38
2022-08-27T19:37:02.396Z,6.13
2022-08-27T19:39:38.952Z,5.97
2022-08-27T19:42:22.490Z,6.63
2022-08-27T19:44:50.632Z,6.00
2022-08-27T19:47:30.575Z,6.82
2022-08-27T19:50:37.419Z,7.00
2022-08-27T19:53:19.498Z,7.10
2022-08-27T19:55:47.178Z,7.30
2022-08-27T19:58:17.038Z,7.50
2022-08-27T20:00:45.725Z,8.13
2022-08-27T20:03:17.537Z,7.20
2022-08-27T20:09:15.742Z,7.45
2022-08-27T20:11:47.507Z,8.23
2022-08-27T20:14:23.611Z,8.02
2022-08-27T20:16:55.154Z,7.75
2022-08-27T20:19:25.926Z,7.70
2022-08-27T20:22:03.164Z,7.60
2022-08-27T20:24:33.218Z,7.68
2022-08-27T20:27:10.741Z,8.25
2022-08-27T20:29:43.802Z,7.22
2022-08-27T20:32:24.788Z,7.20
2022-08-27T20:34:57.746Z,7.72
2022-08-27T20:37:25.442Z,8.02
2022-08-27T20:39:55.225Z,7.13
2022-08-27T20:42:27.593Z,7.28
2022-08-27T20:44:57.782Z,7.55
2022-08-27T20:47:28.275Z,8.15
2022-08-27T20:50:04.163Z,8.32
2022-08-27T20:52:32.646Z,8.50
2022-08-27T20:55:07.594Z,7.97
2022-08-27T20:58:11.862Z,7.15
2022-08-27T21:01:07.827Z,7.82
2022-08-27T21:03:38.069Z,7.72
2022-08-27T21:06:09.260Z,7.80
2022-08-27T21:08:38.998Z,7.60
2022-08-27T21:11:16.310Z,6.13
2022-08-27T21:13:56.174Z,6.20
2022-08-27T21:16:32.428Z,5.97
2022-08-27T21:19:02.695Z,5.05
2022-08-27T21:21:30.231Z,4.80
2022-08-27T21:24:03.205Z,4.47
2022-08-27T21:26:30.511Z,4.57
2022-08-27T21:29:06.360Z,4.18
2022-08-27T21:34:33.301Z,4.20
2022-08-27T21:37:09.982Z,4.32
2022-08-27T21:39:42.209Z,5.15
2022-08-27T21:42:34.334Z,4.80
2022-08-27T21:45:10.023Z,4.78
2022-08-27T21:47:38.231Z,5.03
2022-08-27T21:50:10.007Z,5.15
2022-08-27T21:52:38.945Z,5.43
2022-08-27T21:55:13.100Z,4.80
2022-08-27T21:57:42.842Z,5.15
2022-08-27T22:00:43.118Z,5.30
2022-08-27T22:03:15.052Z,5.03
2022-08-27T22:05:48.908Z,5.32
2022-08-27T22:08:19.498Z,5.20
2022-08-27T22:10:56.773Z,5.25
2022-08-27T22:13:27.345Z,5.30
2022-08-27T22:15:57.618Z,5.13
2022-08-27T22:18:30.710Z,4.93
2022-08-27T22:21:01.612Z,4.40
2022-08-27T22:23:29.380Z,4.00
2022-08-27T22:25:59.977Z,4.55
2022-08-27T22:28:27.468Z,4.45
2022-08-27T22:30:54.744Z,4.38
2022-08-27T22:36:23.683Z,4.57
2022-08-27T22:38:56.224Z,4.83
2022-08-27T22:41:51.149Z,4.53
2022-08-27T22:44:22.796Z,4.35
2022-08-27T22:46:52.900Z,4.68
2022-08-27T22:49:26.527Z,4.38
2022-08-27T22:52:00.481Z,4.68
2022-08-27T22:54:45.711Z,4.43
2022-08-27T22:57:44.313Z,4.75
2022-08-27T23:03:20.401Z,4.85
2022-08-27T23:05:48.017Z,4.50
2022-08-27T23:08:17.805Z,4.30
2022-08-27T23:10:57.893Z,4.75
2022-08-27T23:13:27.162Z,4.25
2022-08-27T23:16:06.245Z,4.43
2022-08-27T23:19:00.750Z,4.43
2022-08-27T23:22:02.592Z,4.35
2022-08-27T23:24:55.998Z,4.40
2022-08-27T23:28:01.965Z,4.13
2022-08-27T23:30:40.865Z,4.45
2022-08-27T23:33:24.548Z,4.60
2022-08-27T23:35:56.107Z,4.35
2022-08-27T23:38:25.050Z,5.55
2022-08-27T23:44:05.577Z,4.50
2022-08-27T23:46:33.420Z,4.90
2022-08-27T23:49:01.886Z,4.55
2022-08-27T23:51:34.891Z,4.82
2022-08-27T23:54:09.039Z,5.07
2022-08-27T23:56:37.494Z,4.70
2022-08-27T23:59:05.952Z,4.60
